Time;durP1;ratioP1;P1;durP2;ratioP2;P2;SDS_P1;SDS_P2;PMS_P1;PMS_P2;Temp;Humidity;BMP_temperature;BMP_pressure;BME280_temperature;BME280_humidity;BME280_pressure;Samples;Min_cycle;Max_cycle;Signal;HPM_P1;HPM_P2
2022/08/21 00:01:42;;;;;;;7.40;6.57;;;;;;;13.72;98.10;101581.91;5032829;28;20440;-53
2022/08/21 00:04:11;;;;;;;7.80;6.77;;;;;;;13.70;97.91;101575.91;5032523;28;20479;-51
2022/08/21 00:06:47;;;;;;;8.90;6.83;;;;;;;13.66;97.98;101577.31;5032773;28;20540;-50
2022/08/21 00:09:15;;;;;;;8.70;7.90;;;;;;;13.63;98.39;101577.72;5032632;28;20471;-52
2022/08/21 00:11:43;;;;;;;8.57;7.60;;;;;;;13.58;98.61;101574.81;5032657;28;20918;-52
2022/08/21 00:14:12;;;;;;;9.97;7.50;;;;;;;13.55;98.79;101576.03;5032465;28;20458;-53
2022/08/21 00:16:39;;;;;;;12.37;8.50;;;;;;;13.49;98.44;101581.31;5032463;28;20464;-52
2022/08/21 00:19:08;;;;;;;6.93;6.43;;;;;;;13.42;98.28;101572.41;5032326;28;20466;-50
2022/08/21 00:21:36;;;;;;;8.83;6.93;;;;;;;13.38;98.44;101566.59;5032268;28;21000;-54
2022/08/21 00:24:06;;;;;;;11.63;7.30;;;;;;;13.38;99.31;101571.97;5032302;28;20476;-50
2022/08/21 00:26:34;;;;;;;7.30;6.70;;;;;;;13.36;99.23;101571.34;5032550;28;20535;-51
2022/08/21 00:29:04;;;;;;;11.87;8.30;;;;;;;13.34;99.44;101570.72;5031792;28;20459;-54
2022/08/21 00:31:32;;;;;;;7.53;6.90;;;;;;;13.29;99.23;101568.59;5032430;28;20432;-51
2022/08/21 00:34:00;;;;;;;11.27;7.80;;;;;;;13.25;99.56;101574.56;5032143;28;20467;-54
2022/08/21 00:36:28;;;;;;;9.37;8.37;;;;;;;13.20;99.25;101574.31;5032365;28;20470;-48
2022/08/21 00:38:56;;;;;;;8.40;7.57;;;;;;;13.17;99.93;101570.16;5031769;28;20436;-54
2022/08/21 00:41:25;;;;;;;11.40;8.47;;;;;;;13.15;100.00;101574.88;5032272;28;20432;-48
2022/08/21 00:44:04;;;;;;;9.30;8.40;;;;;;;13.14;100.00;101572.41;5031813;28;20991;-52
2022/08/21 00:46:32;;;;;;;7.80;7.23;;;;;;;13.10;100.00;101566.59;5054828;23;20490;-41
2022/08/21 00:49:00;;;;;;;12.57;8.60;;;;;;;13.06;100.00;101567.13;5031531;28;20456;-41
2022/08/21 00:51:35;;;;;;;9.90;8.90;;;;;;;13.04;100.00;101574.53;5032148;28;20457;-44
2022/08/21 00:54:06;;;;;;;9.03;8.20;;;;;;;13.05;100.00;101573.53;5031014;28;20432;-42
2022/08/21 00:56:48;;;;;;;10.07;9.17;;;;;;;13.03;100.00;101567.53;5031672;28;20497;-42
2022/08/21 00:59:18;;;;;;;17.07;8.90;;;;;;;13.00;100.00;101573.25;5031562;28;20480;-42
2022/08/21 01:01:46;;;;;;;9.47;8.50;;;;;;;12.99;100.00;101575.09;5031903;28;20455;-43
2022/08/21 01:04:16;;;;;;;10.83;9.73;;;;;;;12.96;100.00;101563.97;5031676;28;20476;-44
2022/08/21 01:06:44;;;;;;;10.93;8.83;;;;;;;12.96;100.00;101566.66;5031641;28;20972;-46
2022/08/21 01:09:11;;;;;;;9.70;8.80;;;;;;;12.96;100.00;101567.44;5031123;28;20459;-42
2022/08/21 01:11:41;;;;;;;16.67;10.30;;;;;;;12.99;100.00;101571.63;5031655;28;20424;-42
2022/08/21 01:14:11;;;;;;;11.67;8.97;;;;;;;12.97;100.00;101568.28;5031751;28;20428;-42
2022/08/21 01:16:41;;;;;;;10.87;9.77;;;;;;;12.99;100.00;101568.94;5031634;28;21036;-42
2022/08/21 01:19:09;;;;;;;11.27;9.80;;;;;;;12.99;100.00;101564.41;5031063;28;20456;-45
2022/08/21 01:21:39;;;;;;;10.93;9.90;;;;;;;12.99;100.00;101569.75;5031570;28;20497;-45
2022/08/21 01:24:07;;;;;;;12.50;11.20;;;;;;;13.01;100.00;101558.88;5031387;28;20491;-42
2022/08/21 01:26:36;;;;;;;11.70;10.53;;;;;;;13.02;100.00;101569.38;5031723;28;20452;-42
2022/08/21 01:29:10;;;;;;;13.07;11.00;;;;;;;13.03;100.00;101572.88;5031224;28;20459;-44
2022/08/21 01:31:38;;;;;;;15.50;11.63;;;;;;;13.04;100.00;101566.50;5031462;28;20918;-43
2022/08/21 01:34:07;;;;;;;12.93;11.73;;;;;;;13.06;100.00;101567.13;5031283;28;20774;-43
2022/08/21 01:36:35;;;;;;;15.50;12.00;;;;;;;13.05;100.00;101568.97;5031298;28;21033;-46
2022/08/21 01:39:05;;;;;;;13.13;11.80;;;;;;;13.04;100.00;101570.03;5031303;28;20475;-44
2022/08/21 01:41:33;;;;;;;15.03;12.07;;;;;;;13.05;100.00;101565.50;5031682;28;20435;-44
2022/08/21 01:44:01;;;;;;;12.23;11.00;;;;;;;13.07;100.00;101572.31;5031114;28;20475;-46
2022/08/21 01:46:30;;;;;;;16.80;12.40;;;;;;;13.08;100.00;101567.81;5031203;28;20463;-44
2022/08/21 01:48:57;;;;;;;13.23;11.80;;;;;;;13.09;100.00;101564.09;5031105;28;20801;-43
2022/08/21 01:51:25;;;;;;;14.57;11.30;;;;;;;13.10;100.00;101571.13;5031504;28;20434;-46
2022/08/21 01:53:53;;;;;;;12.67;11.47;;;;;;;13.07;100.00;101569.63;5031363;28;20508;-44
2022/08/21 01:56:22;;;;;;;17.17;13.77;;;;;;;13.06;100.00;101561.78;5031396;28;20458;-45
2022/08/21 01:58:50;;;;;;;13.10;11.87;;;;;;;13.06;100.00;101570.66;5030513;28;20440;-42
2022/08/21 02:01:18;;;;;;;17.00;13.40;;;;;;;13.07;100.00;101560.78;5031064;28;20944;-43
2022/08/21 02:03:45;;;;;;;15.03;12.90;;;;;;;13.06;100.00;101564.47;5030863;28;20998;-45
2022/08/21 02:06:17;;;;;;;16.07;12.57;;;;;;;13.06;100.00;101551.91;5033686;28;20452;-43
2022/08/21 02:08:45;;;;;;;16.03;13.80;;;;;;;13.08;100.00;101557.13;5034547;28;20439;-44
2022/08/21 02:11:13;;;;;;;15.07;11.97;;;;;;;13.06;100.00;101559.94;5034882;28;20924;-43
2022/08/21 02:13:42;;;;;;;13.43;12.10;;;;;;;13.07;100.00;101566.97;5034626;28;20431;-43
2022/08/21 02:16:09;;;;;;;13.90;11.27;;;;;;;13.09;100.00;101554.22;5034670;28;20456;-46
2022/08/21 02:18:37;;;;;;;12.10;11.10;;;;;;;13.12;100.00;101563.72;5034323;28;20806;-42
2022/08/21 02:21:05;;;;;;;13.70;12.30;;;;;;;13.11;100.00;101562.88;5034697;28;20523;-44
2022/08/21 02:23:33;;;;;;;14.23;12.87;;;;;;;13.13;100.00;101550.16;5034557;28;20929;-42
2022/08/21 02:26:03;;;;;;;17.50;14.37;;;;;;;13.14;100.00;101556.34;5034588;28;20462;-43
2022/08/21 02:28:32;;;;;;;12.80;11.50;;;;;;;13.14;100.00;101549.09;5034256;28;20523;-46
2022/08/21 02:31:01;;;;;;;16.10;14.40;;;;;;;13.17;100.00;101558.63;5034021;28;20824;-42
2022/08/21 02:33:29;;;;;;;14.90;12.63;;;;;;;13.18;100.00;101549.56;5034432;28;20826;-42
2022/08/21 02:35:58;;;;;;;18.07;15.93;;;;;;;13.18;100.00;101555.75;5034436;28;20456;-43
2022/08/21 02:38:29;;;;;;;15.27;13.70;;;;;;;13.18;100.00;101547.72;5034435;28;20853;-42
2022/08/21 02:40:58;;;;;;;14.03;12.83;;;;;;;13.18;100.00;101542.34;5033772;28;20460;-47
2022/08/21 02:43:28;;;;;;;20.43;14.40;;;;;;;13.20;100.00;101548.34;5034219;28;20432;-43
2022/08/21 02:45:56;;;;;;;22.70;17.43;;;;;;;13.17;100.00;101535.34;5034108;28;20472;-42
2022/08/21 02:48:27;;;;;;;15.37;13.80;;;;;;;13.18;100.00;101537.00;5034552;28;20436;-45
2022/08/21 02:50:57;;;;;;;16.70;15.00;;;;;;;13.19;100.00;101538.66;5033817;28;20471;-46
2022/08/21 02:53:26;;;;;;;18.73;15.87;;;;;;;13.19;100.00;101537.84;5034117;28;20425;-42
2022/08/21 02:55:54;;;;;;;18.80;14.50;;;;;;;13.18;100.00;101533.50;5034178;28;20436;-43
2022/08/21 02:58:25;;;;;;;16.47;14.77;;;;;;;13.18;100.00;101531.63;5034412;28;20424;-45
2022/08/21 03:00:54;;;;;;;18.30;16.40;;;;;;;13.19;100.00;101532.47;5033480;28;20470;-42
2022/08/21 03:03:22;;;;;;;17.40;14.80;;;;;;;13.18;100.00;101526.28;5033732;28;20433;-42
2022/08/21 03:05:52;;;;;;;19.07;17.20;;;;;;;13.18;100.00;101526.28;5033766;28;20478;-43
2022/08/21 03:08:20;;;;;;;17.63;15.80;;;;;;;13.21;100.00;101527.75;5033872;28;20796;-45
2022/08/21 03:10:52;;;;;;;21.00;18.23;;;;;;;13.21;100.00;101520.53;5033434;28;20479;-44
2022/08/21 03:13:21;;;;;;;19.27;17.37;;;;;;;13.23;100.00;101528.41;5033674;28;20424;-46
2022/08/21 03:15:50;;;;;;;20.00;17.23;;;;;;;13.23;100.00;101531.06;5033786;28;20455;-46
2022/08/21 03:18:18;;;;;;;17.33;15.60;;;;;;;13.23;100.00;101523.03;5032909;28;20435;-45
2022/08/21 03:20:46;;;;;;;22.40;18.27;;;;;;;13.22;100.00;101524.06;5032973;28;21307;-43
2022/08/21 03:23:17;;;;;;;17.80;15.40;;;;;;;13.20;100.00;101526.09;5033444;28;20420;-44
2022/08/21 03:25:47;;;;;;;20.47;17.90;;;;;;;13.18;100.00;101525.44;5033421;28;20503;-44
2022/08/21 03:28:17;;;;;;;18.30;16.20;;;;;;;13.15;100.00;101529.34;5033624;28;20429;-43
2022/08/21 03:30:47;;;;;;;19.60;17.60;;;;;;;13.12;100.00;101526.22;5032856;28;20479;-44
2022/08/21 03:33:14;;;;;;;19.73;16.63;;;;;;;13.10;100.00;101525.59;5033092;28;20436;-43
2022/08/21 03:35:43;;;;;;;23.33;18.60;;;;;;;13.07;100.00;101524.13;5033224;28;20447;-45
2022/08/21 03:38:13;;;;;;;26.53;17.50;;;;;;;13.06;100.00;101518.94;5033633;28;20439;-43
2022/08/21 03:40:43;;;;;;;18.37;16.47;;;;;;;13.07;100.00;101520.59;5032688;28;20474;-44
2022/08/21 03:43:11;;;;;;;23.17;19.03;;;;;;;13.06;100.00;101522.44;5032972;28;20420;-42
2022/08/21 03:45:39;;;;;;;19.10;17.30;;;;;;;13.06;100.00;101525.13;5032826;28;20467;-41
2022/08/21 03:48:08;;;;;;;21.43;18.70;;;;;;;13.05;100.00;101519.97;5033096;28;20446;-42
2022/08/21 03:50:40;;;;;;;24.27;18.50;;;;;;;13.03;100.00;101514.81;5032935;28;20466;-45
2022/08/21 03:53:08;;;;;;;23.63;18.03;;;;;;;13.05;100.00;101519.97;5032981;28;20429;-43
2022/08/21 03:55:47;;;;;;;19.87;17.87;;;;;;;13.06;100.00;101524.28;5032914;28;20532;-46
2022/08/21 03:58:16;;;;;;;20.97;18.40;;;;;;;13.05;100.00;101514.63;5032832;28;20801;-41
2022/08/21 04:00:45;;;;;;;25.67;19.27;;;;;;;13.03;100.00;101514.81;5032352;28;20448;-41
2022/08/21 04:03:13;;;;;;;19.30;17.53;;;;;;;13.04;100.00;101519.16;5032688;28;20428;-44
2022/08/21 04:05:40;;;;;;;24.27;19.50;;;;;;;13.04;100.00;101515.63;5032798;28;20476;-41
2022/08/21 04:08:08;;;;;;;21.93;18.87;;;;;;;13.05;100.00;101517.31;5032819;28;20839;-42
2022/08/21 04:10:38;;;;;;;22.90;19.33;;;;;;;13.04;100.00;101513.78;5032367;28;21174;-42
2022/08/21 04:13:09;;;;;;;20.90;17.60;;;;;;;13.08;100.00;101519.63;5032481;28;20439;-43
2022/08/21 04:15:37;;;;;;;26.13;19.37;;;;;;;13.08;100.00;101516.94;5032581;28;20436;-43
2022/08/21 04:18:05;;;;;;;20.13;16.13;;;;;;;13.09;100.00;101514.06;5032311;28;20439;-44
2022/08/21 04:20:34;;;;;;;18.87;16.50;;;;;;;13.11;100.00;101514.69;5031960;28;20870;-44
2022/08/21 04:23:01;;;;;;;21.23;18.93;;;;;;;13.15;100.00;101523.16;5032047;28;20443;-42
2022/08/21 04:25:29;;;;;;;22.57;18.90;;;;;;;13.21;100.00;101525.06;5032339;28;20471;-44
2022/08/21 04:27:57;;;;;;;24.30;18.90;;;;;;;13.22;100.00;101516.84;5032116;28;20452;-43
2022/08/21 04:30:26;;;;;;;21.27;18.50;;;;;;;13.26;100.00;101517.28;5031860;28;20458;-42
2022/08/21 04:32:56;;;;;;;19.30;17.30;;;;;;;13.31;100.00;101522.88;5032109;28;20436;-44
2022/08/21 04:35:26;;;;;;;21.07;16.50;;;;;;;13.36;100.00;101517.75;5032244;28;20432;-44
2022/08/21 04:37:54;;;;;;;23.83;19.80;;;;;;;13.44;100.00;101514.91;5031965;28;20646;-43
2022/08/21 04:40:23;;;;;;;18.97;16.97;;;;;;;13.52;100.00;101516.63;5031672;28;20467;-45
2022/08/21 04:42:55;;;;;;;20.33;18.23;;;;;;;13.63;100.00;101521.44;5032105;28;20482;-44
2022/08/21 04:45:27;;;;;;;19.73;17.50;;;;;;;13.70;100.00;101514.25;5032211;28;20522;-42
2022/08/21 04:47:56;;;;;;;21.83;19.57;;;;;;;13.78;100.00;101511.41;5031837;28;20466;-44
2022/08/21 04:50:29;;;;;;;25.57;17.57;;;;;;;13.86;100.00;101513.91;5031470;28;20463;-45
2022/08/21 04:52:58;;;;;;;22.40;19.23;;;;;;;13.95;100.00;101510.03;5031867;28;20450;-42
2022/08/21 04:55:27;;;;;;;27.00;18.90;;;;;;;14.05;100.00;101517.72;5031990;28;20531;-47
2022/08/21 04:57:56;;;;;;;19.67;17.57;;;;;;;14.16;100.00;101517.97;5031865;28;20455;-43
2022/08/21 05:00:26;;;;;;;20.27;18.00;;;;;;;14.37;100.00;101517.03;5031358;28;21203;-47
2022/08/21 05:02:58;;;;;;;20.87;17.13;;;;;;;14.99;100.00;101521.25;5031513;28;20444;-49
2022/08/21 05:05:28;;;;;;;20.90;17.17;;;;;;;16.01;100.00;101517.75;5031844;28;20544;-47
2022/08/21 05:07:58;;;;;;;22.23;16.30;;;;;;;16.90;100.00;101512.31;5031637;28;20449;-47
2022/08/21 05:10:26;;;;;;;16.50;15.10;;;;;;;17.67;96.83;101514.50;5031007;28;20468;-45
2022/08/21 05:12:54;;;;;;;16.90;15.20;;;;;;;18.39;88.28;101517.34;5031667;28;20941;-47
2022/08/21 05:15:21;;;;;;;16.40;15.00;;;;;;;19.10;85.84;101515.44;5031845;28;20439;-45
2022/08/21 05:17:50;;;;;;;17.23;14.27;;;;;;;19.84;84.35;101522.00;5031563;28;20456;-44
2022/08/21 05:20:27;;;;;;;11.50;10.50;;;;;;;20.63;82.85;101523.03;5031164;28;20475;-44
2022/08/21 05:22:55;;;;;;;13.60;12.50;;;;;;;21.25;77.29;101526.53;5031252;28;20431;-43
2022/08/21 05:25:22;;;;;;;12.87;11.77;;;;;;;21.90;74.91;101515.81;5031608;28;20431;-49
2022/08/21 05:27:50;;;;;;;11.90;11.00;;;;;;;22.41;68.89;101515.31;5030405;28;20459;-46
2022/08/21 05:30:19;;;;;;;11.93;10.93;;;;;;;23.13;68.22;101517.63;5030900;28;20475;-46
2022/08/21 05:32:48;;;;;;;9.97;9.17;;;;;;;23.76;65.82;101521.28;5031465;28;20438;-48
2022/08/21 05:35:17;;;;;;;11.00;10.00;;;;;;;24.29;64.17;101518.25;5031452;28;20442;-46
2022/08/21 05:37:44;;;;;;;10.57;9.67;;;;;;;24.89;62.07;101519.47;5031389;28;20798;-49
2022/08/21 05:40:12;;;;;;;9.40;8.50;;;;;;;25.50;60.12;101522.97;5032131;28;20996;-46
2022/08/21 05:42:49;;;;;;;10.37;9.57;;;;;;;25.77;57.73;101518.81;5034815;28;20431;-47
2022/08/21 05:45:22;;;;;;;9.53;8.77;;;;;;;26.05;55.98;101516.47;5035435;28;20530;-45
2022/08/21 05:48:11;;;;;;;8.40;7.57;;;;;;;26.63;53.72;101512.06;5035544;28;20432;-49
2022/08/21 05:50:40;;;;;;;8.47;7.73;;;;;;;27.03;52.40;101517.22;5034676;28;20470;-49
2022/08/21 05:53:09;;;;;;;9.53;8.70;;;;;;;27.17;51.63;101501.78;5035165;28;20864;-47
2022/08/21 05:55:37;;;;;;;7.00;6.40;;;;;;;27.46;49.16;101508.09;5035338;28;20439;-47
2022/08/21 05:58:12;;;;;;;11.40;8.53;;;;;;;27.44;47.55;101496.63;5034668;28;20451;-48
2022/08/21 06:00:39;;;;;;;8.00;7.00;;;;;;;27.77;48.54;101505.00;5034548;28;20466;-46
2022/08/21 06:03:12;;;;;;;7.50;7.03;;;;;;;28.27;45.99;101498.88;5034871;28;20442;-47
2022/08/21 06:05:40;;;;;;;7.47;6.73;;;;;;;28.70;47.04;101501.53;5034842;28;20907;-43
2022/08/21 06:08:08;;;;;;;7.80;5.90;;;;;;;28.99;46.58;101491.16;5034839;28;20534;-48
2022/08/21 06:10:36;;;;;;;7.37;6.60;;;;;;;29.15;45.07;101489.78;5034353;28;20624;-47
2022/08/21 06:13:04;;;;;;;7.73;5.80;;;;;;;29.26;41.14;101485.75;5034142;28;20207;-46
2022/08/21 06:15:32;;;;;;;5.13;4.63;;;;;;;29.31;43.51;101490.31;5034842;28;20609;-45
2022/08/21 06:17:59;;;;;;;5.57;5.07;;;;;;;29.68;43.08;101490.16;5034818;28;20247;-45
2022/08/21 06:20:28;;;;;;;6.20;5.70;;;;;;;29.77;42.13;101480.06;5034366;28;20235;-45
2022/08/21 06:22:57;;;;;;;7.57;4.40;;;;;;;30.01;41.49;101486.16;5034502;28;20657;-46
2022/08/21 06:25:25;;;;;;;5.87;5.37;;;;;;;30.03;40.83;101489.41;5039514;28;20203;-45
2022/08/21 06:27:53;;;;;;;8.70;5.60;;;;;;;30.04;40.59;101481.97;5053877;28;20220;-46
2022/08/21 06:30:21;;;;;;;4.60;4.20;;;;;;;30.28;38.02;101492.72;5053626;28;20637;-47
2022/08/21 06:32:48;;;;;;;4.67;4.27;;;;;;;30.40;36.82;101493.84;5054326;28;20207;-46
2022/08/21 06:35:16;;;;;;;6.30;4.40;;;;;;;30.29;36.62;101484.13;5054206;28;20212;-46
2022/08/21 06:37:44;;;;;;;4.83;4.20;;;;;;;30.50;38.01;101488.06;5052879;28;20226;-48
2022/08/21 06:40:13;;;;;;;8.97;3.67;;;;;;;30.69;35.91;101485.16;5052950;28;20724;-45
2022/08/21 06:42:41;;;;;;;5.03;4.50;;;;;;;30.72;35.25;101492.78;5053951;28;20223;-46
2022/08/21 06:45:10;;;;;;;4.20;3.77;;;;;;;30.84;36.40;101486.69;5054137;28;20523;-48
2022/08/21 06:47:38;;;;;;;4.50;4.00;;;;;;;30.79;37.86;101500.59;5054075;28;20589;-45
2022/08/21 06:50:08;;;;;;;5.57;3.70;;;;;;;31.02;36.28;101492.03;5053572;28;20219;-46
2022/08/21 06:52:35;;;;;;;5.47;4.60;;;;;;;31.16;37.20;101489.19;5052499;28;20202;-46
2022/08/21 06:55:05;;;;;;;4.67;4.13;;;;;;;31.00;36.17;101497.06;5053469;28;20196;-50
2022/08/21 06:57:35;;;;;;;4.38;3.95;;;;;;;30.75;35.09;101488.59;5053792;28;20216;-46
2022/08/21 07:00:05;;;;;;;5.22;3.28;;;;;;;31.01;36.91;101490.41;5053617;28;20232;-49
2022/08/21 07:02:33;;;;;;;4.10;3.73;;;;;;;30.98;36.28;101488.28;5053566;28;20313;-48
2022/08/21 07:05:01;;;;;;;3.30;3.00;;;;;;;30.93;35.73;101485.63;5053809;28;20204;-45
2022/08/21 07:07:44;;;;;;;3.50;3.20;;;;;;;31.02;36.95;101482.97;5053734;28;20234;-46
2022/08/21 07:10:12;;;;;;;4.53;3.87;;;;;;;31.13;35.86;101490.63;5052813;28;20235;-44
2022/08/21 07:12:52;;;;;;;7.10;3.78;;;;;;;30.73;34.59;101480.66;5053660;28;20215;-47
2022/08/21 07:15:29;;;;;;;5.03;3.30;;;;;;;30.50;35.36;101476.25;5053554;28;20665;-48
2022/08/21 07:17:58;;;;;;;2.93;2.73;;;;;;;30.46;36.57;101476.09;5053733;28;20302;-48
2022/08/21 07:20:26;;;;;;;3.85;3.53;;;;;;;30.52;36.74;101480.34;5052722;28;20961;-48
2022/08/21 07:22:54;;;;;;;3.80;3.50;;;;;;;30.28;36.08;101478.97;5053384;28;20306;-49
2022/08/21 07:25:22;;;;;;;3.80;2.80;;;;;;;29.95;34.03;101470.09;5053662;28;20202;-46
2022/08/21 07:27:52;;;;;;;4.40;3.03;;;;;;;29.83;36.67;101467.88;5053336;28;20228;-47
2022/08/21 07:30:19;;;;;;;3.40;3.20;;;;;;;29.85;36.53;101473.88;5052953;28;20224;-45
2022/08/21 07:32:48;;;;;;;3.83;3.10;;;;;;;29.61;36.64;101468.56;5052856;28;20676;-47
2022/08/21 07:35:17;;;;;;;3.30;2.90;;;;;;;29.44;36.92;101465.63;5053227;28;20291;-46
2022/08/21 07:37:44;;;;;;;3.97;2.90;;;;;;;29.25;36.62;101464.06;5053037;28;20224;-47
2022/08/21 07:40:12;;;;;;;3.93;2.80;;;;;;;28.75;37.79;101457.53;5052452;28;20582;-46
2022/08/21 07:42:42;;;;;;;4.87;3.03;;;;;;;28.25;38.07;101464.63;5052631;28;20203;-45
2022/08/21 07:45:12;;;;;;;3.83;2.77;;;;;;;27.58;37.92;101465.75;5052774;28;20430;-45
2022/08/21 07:47:40;;;;;;;4.53;3.37;;;;;;;27.26;39.28;101469.13;5052746;28;20220;-46
2022/08/21 07:50:10;;;;;;;7.97;3.90;;;;;;;26.91;40.05;101470.28;5052501;28;20455;-47
2022/08/21 07:52:38;;;;;;;3.30;3.00;;;;;;;26.51;41.07;101471.41;5052739;28;20430;-46
2022/08/21 07:55:07;;;;;;;9.40;3.70;;;;;;;26.21;41.86;101472.44;5053026;28;20431;-48
2022/08/21 07:57:35;;;;;;;4.27;3.60;;;;;;;25.92;42.67;101473.38;5044762;28;20467;-44
2022/08/21 08:00:04;;;;;;;3.13;2.80;;;;;;;25.83;43.00;101473.97;5028515;28;20991;-46
2022/08/21 08:02:33;;;;;;;3.67;3.33;;;;;;;25.69;43.59;101472.09;5029960;28;20442;-48
2022/08/21 08:05:02;;;;;;;4.17;3.87;;;;;;;25.65;44.39;101477.31;5030207;28;20959;-46
2022/08/21 08:07:30;;;;;;;4.80;3.80;;;;;;;25.59;44.61;101474.88;5029802;28;20479;-44
2022/08/21 08:09:58;;;;;;;4.33;3.90;;;;;;;25.75;44.55;101480.00;5029602;28;20464;-46
2022/08/21 08:12:29;;;;;;;5.90;4.80;;;;;;;25.75;44.88;101477.28;5029218;28;20435;-45
2022/08/21 08:14:57;;;;;;;6.70;4.17;;;;;;;25.82;45.49;101480.53;5029467;28;20435;-47
2022/08/21 08:17:25;;;;;;;4.80;3.60;;;;;;;25.99;45.26;101474.69;5031215;28;20452;-51
2022/08/21 08:19:55;;;;;;;5.47;4.43;;;;;;;26.22;44.94;101465.84;5029452;28;20900;-46
2022/08/21 08:22:24;;;;;;;7.33;4.53;;;;;;;26.21;44.56;101463.41;5030204;28;20485;-47
2022/08/21 08:24:53;;;;;;;4.10;3.57;;;;;;;26.29;44.68;101479.19;5029793;28;20428;-46
2022/08/21 08:27:22;;;;;;;9.13;4.90;;;;;;;26.23;44.21;101480.34;5030492;28;21059;-48
2022/08/21 08:29:51;;;;;;;4.30;3.90;;;;;;;26.05;44.32;101472.75;5032557;28;20463;-46
2022/08/21 08:32:19;;;;;;;4.23;3.83;;;;;;;25.86;45.38;101469.88;5029925;28;20457;-46
2022/08/21 08:34:48;;;;;;;4.90;4.00;;;;;;;25.77;45.49;101469.63;5029832;28;20439;-43
2022/08/21 08:37:17;;;;;;;5.40;4.40;;;;;;;25.41;46.45;101470.81;5029994;28;20984;-45
2022/08/21 08:39:49;;;;;;;4.73;4.07;;;;;;;25.38;46.28;101465.91;5027209;28;20467;-44
2022/08/21 08:42:26;;;;;;;4.30;3.90;;;;;;;25.51;46.89;101461.78;5029851;28;20448;-47
2022/08/21 08:45:05;;;;;;;4.73;4.20;;;;;;;25.40;47.36;101454.69;5029176;28;20436;-49
2022/08/21 08:47:38;;;;;;;4.30;4.00;;;;;;;25.36;47.07;101456.38;5029749;28;20479;-44
2022/08/21 08:50:11;;;;;;;4.20;3.80;;;;;;;25.40;47.57;101446.50;5027563;28;20471;-46
2022/08/21 08:52:48;;;;;;;3.97;3.67;;;;;;;25.46;47.74;101448.13;5029628;28;20427;-48
2022/08/21 08:55:19;;;;;;;6.13;4.13;;;;;;;25.30;48.65;101447.34;5029280;28;20476;-44
2022/08/21 08:57:55;;;;;;;6.70;3.83;;;;;;;25.27;48.19;101446.00;5029667;28;20458;-46
2022/08/21 09:00:24;;;;;;;3.73;3.40;;;;;;;25.44;48.69;101451.16;5028471;28;20555;-47
2022/08/21 09:02:55;;;;;;;5.63;4.33;;;;;;;25.37;47.90;101447.88;5029608;28;20500;-45
2022/08/21 09:05:26;;;;;;;5.23;4.70;;;;;;;25.44;47.75;101440.22;5029612;28;20431;-46
2022/08/21 09:08:20;;;;;;;5.90;4.83;;;;;;;25.51;47.97;101431.75;5028551;28;20482;-47
2022/08/21 09:10:56;;;;;;;4.73;3.93;;;;;;;25.47;48.40;101439.66;5017111;28;20467;-47
2022/08/21 09:13:32;;;;;;;5.40;5.00;;;;;;;25.20;49.47;101440.03;5029457;28;20527;-46
2022/08/21 09:16:12;;;;;;;6.87;4.47;;;;;;;25.22;49.03;101431.53;5028820;28;20991;-44
2022/08/21 09:18:54;;;;;;;6.23;4.20;;;;;;;25.29;48.40;101432.09;5021765;28;20442;-47
2022/08/21 09:21:28;;;;;;;7.63;4.10;;;;;;;25.56;48.96;101427.09;5027889;28;20440;-45
2022/08/21 09:24:02;;;;;;;9.17;4.80;;;;;;;25.66;48.99;101427.03;5028388;28;20446;-45
2022/08/21 09:26:38;;;;;;;10.10;4.67;;;;;;;25.64;48.58;101422.97;5029607;28;20463;-45
2022/08/21 09:29:11;;;;;;;4.80;4.23;;;;;;;25.82;48.78;101422.31;5028921;28;20463;-47
2022/08/21 09:31:39;;;;;;;6.70;4.37;;;;;;;25.76;46.94;101418.81;5028776;28;20438;-46
2022/08/21 09:34:09;;;;;;;4.63;3.60;;;;;;;25.74;45.14;101410.09;5028883;28;20535;-44
2022/08/21 09:36:41;;;;;;;4.30;4.00;;;;;;;25.82;46.33;101419.59;5029491;28;20444;-49
2022/08/21 09:39:13;;;;;;;5.17;4.30;;;;;;;25.93;46.17;101412.16;5028711;28;20977;-45
2022/08/21 09:41:40;;;;;;;10.90;4.73;;;;;;;25.88;46.54;101414.91;5028916;28;20966;-48
2022/08/21 09:44:09;;;;;;;4.83;4.17;;;;;;;26.04;45.93;101414.56;5028982;28;20435;-47
2022/08/21 09:46:37;;;;;;;6.90;4.30;;;;;;;26.09;45.96;101419.16;5029191;28;20460;-44
2022/08/21 09:49:05;;;;;;;3.90;3.60;;;;;;;26.24;46.74;101419.91;5028661;28;20459;-49
2022/08/21 09:51:52;;;;;;;4.67;4.20;;;;;;;26.21;46.52;101412.28;5029075;28;20435;-45
2022/08/21 09:54:27;;;;;;;5.60;4.70;;;;;;;26.21;46.42;101411.47;5020936;28;20462;-44
2022/08/21 09:59:45;;;;;;;5.67;4.20;;;;;;;26.52;45.62;101414.78;5028258;28;20464;-45
2022/08/21 10:02:25;;;;;;;6.80;4.17;;;;;;;26.28;46.69;101411.97;5020282;28;20434;-46
2022/08/21 10:04:54;;;;;;;7.17;5.00;;;;;;;26.24;45.74;101403.50;5028760;28;20446;-44
2022/08/21 10:07:24;;;;;;;5.60;4.27;;;;;;;26.32;47.01;101405.63;5029485;28;20459;-45
2022/08/21 10:10:05;;;;;;;4.07;3.67;;;;;;;26.41;47.07;101414.03;5028076;28;20556;-43
2022/08/21 10:12:44;;;;;;;4.57;3.40;;;;;;;26.61;46.63;101407.59;5028858;28;20482;-45
2022/08/21 10:15:20;;;;;;;5.77;3.43;;;;;;;26.77;46.88;101407.16;5029125;28;20599;-44
2022/08/21 10:17:59;;;;;;;4.33;4.00;;;;;;;26.45;45.60;101401.44;5029411;28;20451;-47
2022/08/21 10:20:33;;;;;;;3.40;3.10;;;;;;;26.66;46.13;101404.81;5028203;28;20466;-45
2022/08/21 10:23:27;;;;;;;3.73;3.43;;;;;;;26.72;45.07;101395.44;5028572;28;20432;-44
2022/08/21 10:26:03;;;;;;;4.93;3.07;;;;;;;26.73;43.57;101397.88;5029871;28;20450;-48
2022/08/21 10:28:50;;;;;;;3.33;3.03;;;;;;;26.66;42.25;101391.13;5017586;28;20467;-48
2022/08/21 10:31:27;;;;;;;4.13;3.43;;;;;;;26.53;42.51;101395.34;5031655;28;20434;-44
2022/08/21 10:34:11;;;;;;;6.20;3.83;;;;;;;26.65;43.22;101401.25;5031899;28;20802;-45
2022/08/21 10:36:47;;;;;;;3.50;3.20;;;;;;;26.70;42.79;101395.72;5032557;28;20448;-45
2022/08/21 10:39:24;;;;;;;4.33;3.10;;;;;;;26.69;43.81;101405.03;5031560;28;20450;-45
2022/08/21 10:42:23;;;;;;;3.53;3.10;;;;;;;26.81;41.89;101405.50;5031958;28;20447;-46
2022/08/21 10:45:11;;;;;;;2.63;2.43;;;;;;;27.03;40.51;101398.72;5031864;28;20444;-46
2022/08/21 10:47:45;;;;;;;3.00;2.80;;;;;;;27.07;41.65;101402.50;5032200;28;20838;-44
2022/08/21 10:50:22;;;;;;;3.13;2.93;;;;;;;27.17;41.68;101410.63;5030827;28;20467;-44
2022/08/21 10:53:02;;;;;;;5.33;2.70;;;;;;;26.99;41.56;101409.44;5031762;28;20434;-45
2022/08/21 10:55:34;;;;;;;4.80;2.97;;;;;;;26.90;42.65;101401.03;5032315;28;20486;-48
2022/08/21 10:58:09;;;;;;;3.17;2.77;;;;;;;27.00;42.87;101402.84;5031825;28;20463;-44
2022/08/21 11:00:45;;;;;;;3.30;3.00;;;;;;;27.13;42.40;101401.34;5018387;28;20459;-48
2022/08/21 11:03:18;;;;;;;3.33;3.13;;;;;;;27.19;40.64;101401.00;5031313;28;20431;-45
2022/08/21 11:05:51;;;;;;;3.67;3.27;;;;;;;27.32;40.96;101404.97;5032000;28;20439;-45
2022/08/21 11:08:23;;;;;;;3.07;2.87;;;;;;;27.31;40.20;101412.34;5031631;28;20431;-45
2022/08/21 11:10:54;;;;;;;3.37;3.00;;;;;;;27.34;38.60;101400.81;5030985;28;20828;-45
2022/08/21 11:13:38;;;;;;;3.00;2.90;;;;;;;26.87;41.00;101412.56;5031438;28;20431;-49
2022/08/21 11:16:15;;;;;;;2.90;2.70;;;;;;;26.93;41.58;101411.41;5031732;28;20852;-46
2022/08/21 11:18:48;;;;;;;3.07;2.87;;;;;;;26.94;42.27;101412.25;5031115;28;20461;-49
2022/08/21 11:21:30;;;;;;;3.00;2.80;;;;;;;27.18;39.72;101413.03;5031103;28;20439;-44
2022/08/21 11:24:03;;;;;;;4.07;2.40;;;;;;;27.23;40.54;101417.66;5030745;28;20813;-44
2022/08/21 11:26:39;;;;;;;3.50;2.90;;;;;;;27.53;40.29;101409.13;5031671;28;20455;-47
2022/08/21 11:29:14;;;;;;;5.10;3.20;;;;;;;27.59;40.29;101407.94;5030663;28;20481;-46
2022/08/21 11:31:53;;;;;;;4.57;3.00;;;;;;;27.66;39.86;101415.81;5030753;28;20432;-46
2022/08/21 11:34:40;;;;;;;6.67;3.13;;;;;;;27.80;38.65;101412.03;5030998;28;20784;-47